sensor_id;sensor_type;location;lat;lon;timestamp;P1;durP1;ratioP1;P2;durP2;ratioP2
12896;SDS011;6516;35.028;32.372;2023-07-13T00:02:30;5.80;;;2.20;;
12896;SDS011;6516;35.028;32.372;2023-07-13T00:04:58;5.47;;;1.90;;
12896;SDS011;6516;35.028;32.372;2023-07-13T00:07:26;4.65;;;1.77;;
12896;SDS011;6516;35.028;32.372;2023-07-13T00:09:53;4.72;;;1.95;;
12896;SDS011;6516;35.028;32.372;2023-07-13T00:12:22;4.00;;;2.10;;
12896;SDS011;6516;35.028;32.372;2023-07-13T00:14:52;7.43;;;2.15;;
12896;SDS011;6516;35.028;32.372;2023-07-13T00:17:20;4.70;;;2.10;;
12896;SDS011;6516;35.028;32.372;2023-07-13T00:19:49;5.47;;;2.50;;
12896;SDS011;6516;35.028;32.372;2023-07-13T00:22:17;5.97;;;2.50;;
12896;SDS011;6516;35.028;32.372;2023-07-13T00:24:45;5.43;;;2.00;;
12896;SDS011;6516;35.028;32.372;2023-07-13T00:27:13;7.10;;;2.20;;
12896;SDS011;6516;35.028;32.372;2023-07-13T00:29:43;8.77;;;2.33;;
12896;SDS011;6516;35.028;32.372;2023-07-13T00:32:11;5.15;;;2.00;;
12896;SDS011;6516;35.028;32.372;2023-07-13T00:34:38;4.80;;;2.22;;
12896;SDS011;6516;35.028;32.372;2023-07-13T00:37:08;4.20;;;2.10;;
12896;SDS011;6516;35.028;32.372;2023-07-13T00:39:36;6.30;;;2.08;;
12896;SDS011;6516;35.028;32.372;2023-07-13T00:42:04;5.13;;;2.33;;
12896;SDS011;6516;35.028;32.372;2023-07-13T00:44:32;7.25;;;2.47;;
12896;SDS011;6516;35.028;32.372;2023-07-13T00:47:01;4.95;;;2.05;;
12896;SDS011;6516;35.028;32.372;2023-07-13T00:49:29;6.35;;;2.20;;
12896;SDS011;6516;35.028;32.372;2023-07-13T00:52:02;5.10;;;2.30;;
12896;SDS011;6516;35.028;32.372;2023-07-13T00:54:35;4.40;;;2.23;;
12896;SDS011;6516;35.028;32.372;2023-07-13T00:57:08;7.20;;;2.28;;
12896;SDS011;6516;35.028;32.372;2023-07-13T00:59:39;8.18;;;2.38;;
12896;SDS011;6516;35.028;32.372;2023-07-13T01:02:13;4.88;;;2.20;;
12896;SDS011;6516;35.028;32.372;2023-07-13T01:04:41;7.10;;;2.70;;
12896;SDS011;6516;35.028;32.372;2023-07-13T01:07:09;5.87;;;2.20;;
12896;SDS011;6516;35.028;32.372;2023-07-13T01:09:40;5.35;;;2.20;;
12896;SDS011;6516;35.028;32.372;2023-07-13T01:12:08;3.95;;;2.10;;
12896;SDS011;6516;35.028;32.372;2023-07-13T01:14:36;5.72;;;2.53;;
12896;SDS011;6516;35.028;32.372;2023-07-13T01:17:04;6.28;;;2.15;;
12896;SDS011;6516;35.028;32.372;2023-07-13T01:19:33;5.00;;;2.10;;
12896;SDS011;6516;35.028;32.372;2023-07-13T01:22:06;6.30;;;2.33;;
12896;SDS011;6516;35.028;32.372;2023-07-13T01:24:37;4.45;;;2.10;;
12896;SDS011;6516;35.028;32.372;2023-07-13T01:27:08;6.43;;;2.22;;
12896;SDS011;6516;35.028;32.372;2023-07-13T01:29:39;4.32;;;2.10;;
12896;SDS011;6516;35.028;32.372;2023-07-13T01:32:08;5.70;;;2.13;;
12896;SDS011;6516;35.028;32.372;2023-07-13T01:34:38;5.65;;;2.33;;
12896;SDS011;6516;35.028;32.372;2023-07-13T01:37:09;4.50;;;2.00;;
12896;SDS011;6516;35.028;32.372;2023-07-13T01:39:37;4.70;;;2.30;;
12896;SDS011;6516;35.028;32.372;2023-07-13T01:42:05;4.40;;;2.30;;
12896;SDS011;6516;35.028;32.372;2023-07-13T01:44:33;5.73;;;2.33;;
12896;SDS011;6516;35.028;32.372;2023-07-13T01:47:02;5.35;;;2.22;;
12896;SDS011;6516;35.028;32.372;2023-07-13T01:49:31;5.75;;;2.10;;
12896;SDS011;6516;35.028;32.372;2023-07-13T01:51:59;6.90;;;2.20;;
12896;SDS011;6516;35.028;32.372;2023-07-13T01:54:28;6.35;;;2.42;;
12896;SDS011;6516;35.028;32.372;2023-07-13T01:56:55;5.60;;;2.30;;
12896;SDS011;6516;35.028;32.372;2023-07-13T01:59:23;5.53;;;2.20;;
12896;SDS011;6516;35.028;32.372;2023-07-13T02:01:51;5.18;;;2.33;;
12896;SDS011;6516;35.028;32.372;2023-07-13T02:04:19;5.43;;;2.30;;
12896;SDS011;6516;35.028;32.372;2023-07-13T02:06:46;5.03;;;2.78;;
12896;SDS011;6516;35.028;32.372;2023-07-13T02:09:14;5.83;;;2.23;;
12896;SDS011;6516;35.028;32.372;2023-07-13T02:11:43;5.97;;;2.60;;
12896;SDS011;6516;35.028;32.372;2023-07-13T02:14:11;8.00;;;2.40;;
12896;SDS011;6516;35.028;32.372;2023-07-13T02:16:40;7.03;;;2.35;;
12896;SDS011;6516;35.028;32.372;2023-07-13T02:19:08;6.05;;;2.20;;
12896;SDS011;6516;35.028;32.372;2023-07-13T02:21:36;4.97;;;2.17;;
12896;SDS011;6516;35.028;32.372;2023-07-13T02:24:04;5.35;;;2.20;;
12896;SDS011;6516;35.028;32.372;2023-07-13T02:26:32;5.28;;;2.35;;
12896;SDS011;6516;35.028;32.372;2023-07-13T02:29:01;5.40;;;2.10;;
12896;SDS011;6516;35.028;32.372;2023-07-13T02:31:29;5.15;;;2.00;;
12896;SDS011;6516;35.028;32.372;2023-07-13T02:33:57;5.40;;;2.30;;
12896;SDS011;6516;35.028;32.372;2023-07-13T02:36:24;5.00;;;2.20;;
12896;SDS011;6516;35.028;32.372;2023-07-13T02:38:52;6.47;;;2.30;;
12896;SDS011;6516;35.028;32.372;2023-07-13T02:41:20;4.43;;;2.28;;
12896;SDS011;6516;35.028;32.372;2023-07-13T02:43:48;5.30;;;2.42;;
12896;SDS011;6516;35.028;32.372;2023-07-13T02:46:17;5.40;;;2.37;;
12896;SDS011;6516;35.028;32.372;2023-07-13T02:48:45;5.25;;;2.28;;
12896;SDS011;6516;35.028;32.372;2023-07-13T02:51:13;5.63;;;2.20;;
12896;SDS011;6516;35.028;32.372;2023-07-13T02:53:40;7.07;;;2.20;;
12896;SDS011;6516;35.028;32.372;2023-07-13T02:56:08;4.88;;;2.20;;
12896;SDS011;6516;35.028;32.372;2023-07-13T02:58:36;5.23;;;2.50;;
12896;SDS011;6516;35.028;32.372;2023-07-13T03:01:06;4.97;;;2.25;;
12896;SDS011;6516;35.028;32.372;2023-07-13T03:03:36;4.40;;;2.28;;
12896;SDS011;6516;35.028;32.372;2023-07-13T03:06:05;5.70;;;2.33;;
12896;SDS011;6516;35.028;32.372;2023-07-13T03:08:33;4.93;;;2.30;;
12896;SDS011;6516;35.028;32.372;2023-07-13T03:11:01;5.80;;;2.10;;
12896;SDS011;6516;35.028;32.372;2023-07-13T03:13:31;6.60;;;2.10;;
12896;SDS011;6516;35.028;32.372;2023-07-13T03:15:59;4.20;;;2.10;;
12896;SDS011;6516;35.028;32.372;2023-07-13T03:18:27;5.40;;;2.25;;
12896;SDS011;6516;35.028;32.372;2023-07-13T03:20:56;6.78;;;2.30;;
12896;SDS011;6516;35.028;32.372;2023-07-13T03:23:24;6.10;;;2.40;;
12896;SDS011;6516;35.028;32.372;2023-07-13T03:26:00;6.63;;;2.15;;
12896;SDS011;6516;35.028;32.372;2023-07-13T03:28:30;5.65;;;2.03;;
12896;SDS011;6516;35.028;32.372;2023-07-13T03:31:01;4.65;;;2.30;;
12896;SDS011;6516;35.028;32.372;2023-07-13T03:33:31;7.15;;;2.20;;
12896;SDS011;6516;35.028;32.372;2023-07-13T03:36:01;4.23;;;1.93;;
12896;SDS011;6516;35.028;32.372;2023-07-13T03:38:29;5.20;;;2.13;;
12896;SDS011;6516;35.028;32.372;2023-07-13T03:40:57;5.35;;;2.10;;
12896;SDS011;6516;35.028;32.372;2023-07-13T03:43:25;6.47;;;2.30;;
12896;SDS011;6516;35.028;32.372;2023-07-13T03:45:52;3.90;;;1.88;;
12896;SDS011;6516;35.028;32.372;2023-07-13T03:48:20;3.87;;;1.97;;
12896;SDS011;6516;35.028;32.372;2023-07-13T03:50:48;4.82;;;2.10;;
12896;SDS011;6516;35.028;32.372;2023-07-13T03:53:17;5.28;;;2.00;;
12896;SDS011;6516;35.028;32.372;2023-07-13T03:55:45;4.20;;;2.10;;
12896;SDS011;6516;35.028;32.372;2023-07-13T03:58:27;5.10;;;2.10;;
12896;SDS011;6516;35.028;32.372;2023-07-13T04:00:59;4.73;;;2.30;;
12896;SDS011;6516;35.028;32.372;2023-07-13T04:03:28;4.63;;;2.22;;
12896;SDS011;6516;35.028;32.372;2023-07-13T04:05:58;4.30;;;2.10;;
12896;SDS011;6516;35.028;32.372;2023-07-13T04:08:28;5.03;;;2.13;;
12896;SDS011;6516;35.028;32.372;2023-07-13T04:10:57;4.97;;;2.30;;
12896;SDS011;6516;35.028;32.372;2023-07-13T04:13:26;4.93;;;2.33;;
12896;SDS011;6516;35.028;32.372;2023-07-13T04:15:54;5.30;;;1.95;;
12896;SDS011;6516;35.028;32.372;2023-07-13T04:18:22;4.95;;;2.47;;
12896;SDS011;6516;35.028;32.372;2023-07-13T04:20:50;4.35;;;2.30;;
12896;SDS011;6516;35.028;32.372;2023-07-13T04:23:18;4.10;;;1.92;;
12896;SDS011;6516;35.028;32.372;2023-07-13T04:25:48;4.10;;;2.10;;
12896;SDS011;6516;35.028;32.372;2023-07-13T04:28:19;5.32;;;2.40;;
12896;SDS011;6516;35.028;32.372;2023-07-13T04:30:48;4.15;;;2.20;;
12896;SDS011;6516;35.028;32.372;2023-07-13T04:33:16;4.13;;;2.00;;
12896;SDS011;6516;35.028;32.372;2023-07-13T04:35:47;5.00;;;2.20;;
12896;SDS011;6516;35.028;32.372;2023-07-13T04:38:15;4.67;;;2.13;;
12896;SDS011;6516;35.028;32.372;2023-07-13T04:40:44;4.72;;;2.00;;
12896;SDS011;6516;35.028;32.372;2023-07-13T04:43:14;4.20;;;2.00;;
12896;SDS011;6516;35.028;32.372;2023-07-13T04:45:41;4.88;;;2.28;;
12896;SDS011;6516;35.028;32.372;2023-07-13T04:48:10;5.07;;;2.20;;
12896;SDS011;6516;35.028;32.372;2023-07-13T04:50:38;5.93;;;2.37;;
12896;SDS011;6516;35.028;32.372;2023-07-13T04:53:06;5.50;;;2.30;;
12896;SDS011;6516;35.028;32.372;2023-07-13T04:55:33;4.47;;;2.20;;
12896;SDS011;6516;35.028;32.372;2023-07-13T04:58:01;4.63;;;2.05;;
12896;SDS011;6516;35.028;32.372;2023-07-13T05:00:31;5.38;;;2.35;;
12896;SDS011;6516;35.028;32.372;2023-07-13T05:02:59;5.13;;;2.20;;
12896;SDS011;6516;35.028;32.372;2023-07-13T05:05:27;5.20;;;2.17;;
12896;SDS011;6516;35.028;32.372;2023-07-13T05:07:55;5.35;;;2.13;;
12896;SDS011;6516;35.028;32.372;2023-07-13T05:10:22;5.55;;;2.20;;
12896;SDS011;6516;35.028;32.372;2023-07-13T05:12:50;5.85;;;2.30;;
12896;SDS011;6516;35.028;32.372;2023-07-13T05:15:20;5.07;;;2.40;;
12896;SDS011;6516;35.028;32.372;2023-07-13T05:17:50;5.45;;;1.95;;
12896;SDS011;6516;35.028;32.372;2023-07-13T05:20:21;4.65;;;1.90;;
12896;SDS011;6516;35.028;32.372;2023-07-13T05:22:48;4.30;;;2.20;;
12896;SDS011;6516;35.028;32.372;2023-07-13T05:25:16;4.25;;;1.92;;
12896;SDS011;6516;35.028;32.372;2023-07-13T05:27:44;5.50;;;1.83;;
12896;SDS011;6516;35.028;32.372;2023-07-13T05:30:13;4.47;;;2.10;;
12896;SDS011;6516;35.028;32.372;2023-07-13T05:32:41;4.80;;;1.80;;
12896;SDS011;6516;35.028;32.372;2023-07-13T05:35:10;5.32;;;1.60;;
12896;SDS011;6516;35.028;32.372;2023-07-13T05:37:38;6.50;;;2.10;;
12896;SDS011;6516;35.028;32.372;2023-07-13T05:40:06;5.07;;;1.90;;
12896;SDS011;6516;35.028;32.372;2023-07-13T05:42:34;5.05;;;2.00;;
12896;SDS011;6516;35.028;32.372;2023-07-13T05:45:02;5.57;;;2.10;;
12896;SDS011;6516;35.028;32.372;2023-07-13T05:47:31;5.30;;;1.90;;
12896;SDS011;6516;35.028;32.372;2023-07-13T05:49:59;4.60;;;2.10;;
12896;SDS011;6516;35.028;32.372;2023-07-13T05:52:28;5.13;;;2.07;;
12896;SDS011;6516;35.028;32.372;2023-07-13T05:54:56;6.68;;;2.10;;
12896;SDS011;6516;35.028;32.372;2023-07-13T05:57:23;4.55;;;2.08;;
12896;SDS011;6516;35.028;32.372;2023-07-13T05:59:51;6.47;;;1.90;;
12896;SDS011;6516;35.028;32.372;2023-07-13T06:02:19;5.30;;;1.80;;
12896;SDS011;6516;35.028;32.372;2023-07-13T06:04:47;3.97;;;1.90;;
12896;SDS011;6516;35.028;32.372;2023-07-13T06:07:14;4.28;;;1.85;;
12896;SDS011;6516;35.028;32.372;2023-07-13T06:09:43;4.13;;;1.83;;
12896;SDS011;6516;35.028;32.372;2023-07-13T06:12:11;6.53;;;2.05;;
12896;SDS011;6516;35.028;32.372;2023-07-13T06:14:39;4.35;;;1.90;;
12896;SDS011;6516;35.028;32.372;2023-07-13T06:17:07;5.70;;;2.00;;
12896;SDS011;6516;35.028;32.372;2023-07-13T06:19:35;6.85;;;2.25;;
12896;SDS011;6516;35.028;32.372;2023-07-13T06:22:03;5.55;;;2.03;;
12896;SDS011;6516;35.028;32.372;2023-07-13T06:24:31;5.40;;;1.95;;
12896;SDS011;6516;35.028;32.372;2023-07-13T06:27:00;6.20;;;1.90;;
12896;SDS011;6516;35.028;32.372;2023-07-13T06:29:28;6.17;;;2.10;;
12896;SDS011;6516;35.028;32.372;2023-07-13T06:31:56;5.72;;;2.00;;
12896;SDS011;6516;35.028;32.372;2023-07-13T06:34:24;5.68;;;1.92;;
12896;SDS011;6516;35.028;32.372;2023-07-13T06:36:52;5.72;;;2.10;;
12896;SDS011;6516;35.028;32.372;2023-07-13T06:39:20;6.15;;;2.00;;
12896;SDS011;6516;35.028;32.372;2023-07-13T06:41:47;5.10;;;1.97;;
12896;SDS011;6516;35.028;32.372;2023-07-13T06:44:16;3.83;;;1.83;;
12896;SDS011;6516;35.028;32.372;2023-07-13T06:46:44;4.10;;;1.70;;
12896;SDS011;6516;35.028;32.372;2023-07-13T06:49:12;5.15;;;1.92;;
12896;SDS011;6516;35.028;32.372;2023-07-13T06:51:40;4.82;;;1.88;;
12896;SDS011;6516;35.028;32.372;2023-07-13T06:54:07;4.67;;;1.87;;
12896;SDS011;6516;35.028;32.372;2023-07-13T06:56:35;4.28;;;1.92;;
12896;SDS011;6516;35.028;32.372;2023-07-13T06:59:03;6.32;;;2.03;;
12896;SDS011;6516;35.028;32.372;2023-07-13T07:01:32;4.15;;;1.90;;
12896;SDS011;6516;35.028;32.372;2023-07-13T07:04:00;6.57;;;1.90;;
12896;SDS011;6516;35.028;32.372;2023-07-13T07:06:28;5.10;;;1.83;;
12896;SDS011;6516;35.028;32.372;2023-07-13T07:08:55;5.18;;;2.10;;
12896;SDS011;6516;35.028;32.372;2023-07-13T07:11:24;4.47;;;2.00;;
12896;SDS011;6516;35.028;32.372;2023-07-13T07:13:52;4.60;;;2.00;;
12896;SDS011;6516;35.028;32.372;2023-07-13T07:16:20;4.40;;;1.83;;
12896;SDS011;6516;35.028;32.372;2023-07-13T07:18:50;4.33;;;2.00;;
12896;SDS011;6516;35.028;32.372;2023-07-13T07:21:17;4.63;;;2.00;;
12896;SDS011;6516;35.028;32.372;2023-07-13T07:23:47;6.72;;;1.98;;
12896;SDS011;6516;35.028;32.372;2023-07-13T07:26:15;6.13;;;2.05;;
12896;SDS011;6516;35.028;32.372;2023-07-13T07:28:43;4.68;;;2.00;;
12896;SDS011;6516;35.028;32.372;2023-07-13T07:31:11;4.33;;;2.07;;
12896;SDS011;6516;35.028;32.372;2023-07-13T07:33:39;6.35;;;2.50;;
12896;SDS011;6516;35.028;32.372;2023-07-13T07:36:08;5.10;;;2.13;;
12896;SDS011;6516;35.028;32.372;2023-07-13T07:38:37;7.60;;;2.30;;
12896;SDS011;6516;35.028;32.372;2023-07-13T07:41:04;4.20;;;2.20;;
12896;SDS011;6516;35.028;32.372;2023-07-13T07:43:32;6.10;;;1.87;;
12896;SDS011;6516;35.028;32.372;2023-07-13T07:46:02;5.45;;;2.15;;
12896;SDS011;6516;35.028;32.372;2023-07-13T07:48:30;4.40;;;2.10;;
12896;SDS011;6516;35.028;32.372;2023-07-13T07:50:58;5.40;;;2.13;;
12896;SDS011;6516;35.028;32.372;2023-07-13T07:53:27;5.65;;;2.10;;
12896;SDS011;6516;35.028;32.372;2023-07-13T07:55:55;7.07;;;2.00;;
12896;SDS011;6516;35.028;32.372;2023-07-13T07:58:23;4.38;;;1.90;;
12896;SDS011;6516;35.028;32.372;2023-07-13T08:00:50;5.03;;;2.10;;
12896;SDS011;6516;35.028;32.372;2023-07-13T08:03:18;8.05;;;2.05;;
12896;SDS011;6516;35.028;32.372;2023-07-13T08:05:46;4.18;;;2.30;;
12896;SDS011;6516;35.028;32.372;2023-07-13T08:08:14;4.90;;;2.17;;
12896;SDS011;6516;35.028;32.372;2023-07-13T08:10:43;5.90;;;2.28;;
12896;SDS011;6516;35.028;32.372;2023-07-13T08:13:11;4.43;;;2.17;;
12896;SDS011;6516;35.028;32.372;2023-07-13T08:15:39;4.07;;;2.10;;
12896;SDS011;6516;35.028;32.372;2023-07-13T08:18:06;4.38;;;2.35;;
12896;SDS011;6516;35.028;32.372;2023-07-13T08:20:36;4.30;;;2.30;;
12896;SDS011;6516;35.028;32.372;2023-07-13T08:23:04;4.93;;;2.28;;
12896;SDS011;6516;35.028;32.372;2023-07-13T08:25:32;5.47;;;2.38;;
12896;SDS011;6516;35.028;32.372;2023-07-13T08:28:02;5.22;;;2.40;;
12896;SDS011;6516;35.028;32.372;2023-07-13T08:30:30;7.18;;;2.22;;
12896;SDS011;6516;35.028;32.372;2023-07-13T08:32:58;4.80;;;2.73;;
12896;SDS011;6516;35.028;32.372;2023-07-13T08:35:26;6.43;;;2.35;;
12896;SDS011;6516;35.028;32.372;2023-07-13T08:37:54;5.60;;;2.45;;
12896;SDS011;6516;35.028;32.372;2023-07-13T08:40:24;5.45;;;2.60;;
12896;SDS011;6516;35.028;32.372;2023-07-13T08:42:53;5.18;;;2.60;;
12896;SDS011;6516;35.028;32.372;2023-07-13T08:45:26;6.60;;;2.47;;
12896;SDS011;6516;35.028;32.372;2023-07-13T08:48:01;6.82;;;2.55;;
12896;SDS011;6516;35.028;32.372;2023-07-13T08:50:35;6.78;;;2.67;;
12896;SDS011;6516;35.028;32.372;2023-07-13T08:53:15;7.15;;;2.60;;
12896;SDS011;6516;35.028;32.372;2023-07-13T08:55:45;6.18;;;2.60;;
12896;SDS011;6516;35.028;32.372;2023-07-13T08:58:13;4.27;;;2.10;;
12896;SDS011;6516;35.028;32.372;2023-07-13T09:00:46;5.28;;;2.17;;
12896;SDS011;6516;35.028;32.372;2023-07-13T09:03:23;4.78;;;2.50;;
12896;SDS011;6516;35.028;32.372;2023-07-13T09:05:59;5.72;;;2.50;;
12896;SDS011;6516;35.028;32.372;2023-07-13T09:08:33;4.68;;;2.30;;
12896;SDS011;6516;35.028;32.372;2023-07-13T09:11:21;4.30;;;2.50;;
12896;SDS011;6516;35.028;32.372;2023-07-13T09:14:03;5.30;;;2.42;;
12896;SDS011;6516;35.028;32.372;2023-07-13T09:16:50;5.30;;;2.40;;
12896;SDS011;6516;35.028;32.372;2023-07-13T09:19:20;6.13;;;2.50;;
12896;SDS011;6516;35.028;32.372;2023-07-13T09:21:53;5.25;;;2.53;;
12896;SDS011;6516;35.028;32.372;2023-07-13T09:24:29;6.10;;;2.57;;
12896;SDS011;6516;35.028;32.372;2023-07-13T09:27:09;5.10;;;2.90;;
12896;SDS011;6516;35.028;32.372;2023-07-13T09:29:45;6.53;;;2.70;;
12896;SDS011;6516;35.028;32.372;2023-07-13T09:32:19;6.05;;;2.80;;
12896;SDS011;6516;35.028;32.372;2023-07-13T09:34:50;4.72;;;2.13;;
12896;SDS011;6516;35.028;32.372;2023-07-13T09:37:20;4.50;;;2.50;;
12896;SDS011;6516;35.028;32.372;2023-07-13T09:39:51;6.78;;;2.83;;
12896;SDS011;6516;35.028;32.372;2023-07-13T09:42:21;5.20;;;2.40;;
12896;SDS011;6516;35.028;32.372;2023-07-13T09:44:51;7.93;;;2.50;;
12896;SDS011;6516;35.028;32.372;2023-07-13T09:47:24;4.72;;;2.45;;
12896;SDS011;6516;35.028;32.372;2023-07-13T09:49:54;7.20;;;2.77;;
12896;SDS011;6516;35.028;32.372;2023-07-13T09:52:27;6.60;;;2.80;;
12896;SDS011;6516;35.028;32.372;2023-07-13T09:55:15;6.47;;;2.85;;
12896;SDS011;6516;35.028;32.372;2023-07-13T09:57:52;9.15;;;3.00;;
12896;SDS011;6516;35.028;32.372;2023-07-13T10:00:21;5.50;;;2.50;;
12896;SDS011;6516;35.028;32.372;2023-07-13T10:03:01;6.17;;;2.83;;
12896;SDS011;6516;35.028;32.372;2023-07-13T10:05:39;5.78;;;2.75;;
12896;SDS011;6516;35.028;32.372;2023-07-13T10:08:20;10.13;;;2.65;;
12896;SDS011;6516;35.028;32.372;2023-07-13T10:10:53;5.38;;;2.90;;
12896;SDS011;6516;35.028;32.372;2023-07-13T10:13:26;7.43;;;2.95;;
12896;SDS011;6516;35.028;32.372;2023-07-13T10:15:59;5.93;;;3.00;;
12896;SDS011;6516;35.028;32.372;2023-07-13T10:18:33;6.45;;;3.17;;
12896;SDS011;6516;35.028;32.372;2023-07-13T10:21:14;6.88;;;2.95;;
12896;SDS011;6516;35.028;32.372;2023-07-13T10:23:45;6.30;;;3.20;;
12896;SDS011;6516;35.028;32.372;2023-07-13T10:26:20;5.07;;;2.97;;
12896;SDS011;6516;35.028;32.372;2023-07-13T10:29:00;5.53;;;3.17;;
12896;SDS011;6516;35.028;32.372;2023-07-13T10:31:33;7.07;;;3.30;;
12896;SDS011;6516;35.028;32.372;2023-07-13T10:34:07;6.53;;;3.10;;
12896;SDS011;6516;35.028;32.372;2023-07-13T10:36:38;6.88;;;3.63;;
12896;SDS011;6516;35.028;32.372;2023-07-13T10:39:14;6.13;;;3.10;;
12896;SDS011;6516;35.028;32.372;2023-07-13T10:41:46;6.30;;;3.60;;
12896;SDS011;6516;35.028;32.372;2023-07-13T10:44:22;6.55;;;3.50;;
12896;SDS011;6516;35.028;32.372;2023-07-13T10:46:55;5.78;;;3.40;;
12896;SDS011;6516;35.028;32.372;2023-07-13T10:49:28;7.10;;;3.63;;
12896;SDS011;6516;35.028;32.372;2023-07-13T10:51:58;7.57;;;3.55;;
12896;SDS011;6516;35.028;32.372;2023-07-13T10:54:27;5.67;;;3.80;;
12896;SDS011;6516;35.028;32.372;2023-07-13T10:57:08;6.97;;;3.35;;
12896;SDS011;6516;35.028;32.372;2023-07-13T10:59:46;7.55;;;3.10;;
12896;SDS011;6516;35.028;32.372;2023-07-13T11:02:21;9.25;;;3.20;;
12896;SDS011;6516;35.028;32.372;2023-07-13T11:04:54;6.97;;;3.30;;
12896;SDS011;6516;35.028;32.372;2023-07-13T11:07:24;7.07;;;3.03;;
12896;SDS011;6516;35.028;32.372;2023-07-13T11:09:55;7.00;;;3.30;;
12896;SDS011;6516;35.028;32.372;2023-07-13T11:12:48;7.57;;;3.55;;
12896;SDS011;6516;35.028;32.372;2023-07-13T11:15:29;6.95;;;3.10;;
12896;SDS011;6516;35.028;32.372;2023-07-13T11:18:10;6.78;;;3.20;;
12896;SDS011;6516;35.028;32.372;2023-07-13T11:20:50;6.00;;;3.40;;
12896;SDS011;6516;35.028;32.372;2023-07-13T11:23:29;15.30;;;4.50;;
12896;SDS011;6516;35.028;32.372;2023-07-13T11:25:58;7.30;;;3.35;;
12896;SDS011;6516;35.028;32.372;2023-07-13T11:28:30;6.50;;;4.10;;
12896;SDS011;6516;35.028;32.372;2023-07-13T11:31:00;7.97;;;4.55;;
12896;SDS011;6516;35.028;32.372;2023-07-13T11:33:53;7.27;;;4.20;;
12896;SDS011;6516;35.028;32.372;2023-07-13T11:36:29;5.90;;;3.75;;
12896;SDS011;6516;35.028;32.372;2023-07-13T11:39:04;6.43;;;3.78;;
12896;SDS011;6516;35.028;32.372;2023-07-13T11:41:43;6.95;;;3.72;;
12896;SDS011;6516;35.028;32.372;2023-07-13T11:44:18;6.07;;;3.53;;
12896;SDS011;6516;35.028;32.372;2023-07-13T11:46:48;6.10;;;3.50;;
12896;SDS011;6516;35.028;32.372;2023-07-13T11:49:18;8.27;;;3.67;;
12896;SDS011;6516;35.028;32.372;2023-07-13T11:51:49;6.05;;;3.20;;
12896;SDS011;6516;35.028;32.372;2023-07-13T11:54:26;6.30;;;3.50;;
12896;SDS011;6516;35.028;32.372;2023-07-13T11:56:57;6.25;;;3.50;;
12896;SDS011;6516;35.028;32.372;2023-07-13T11:59:31;8.17;;;4.13;;
12896;SDS011;6516;35.028;32.372;2023-07-13T12:02:01;6.90;;;3.63;;
12896;SDS011;6516;35.028;32.372;2023-07-13T12:04:29;6.20;;;3.60;;
12896;SDS011;6516;35.028;32.372;2023-07-13T12:07:05;6.35;;;3.50;;
12896;SDS011;6516;35.028;32.372;2023-07-13T12:09:42;8.43;;;3.58;;
12896;SDS011;6516;35.028;32.372;2023-07-13T12:12:11;5.77;;;3.40;;
12896;SDS011;6516;35.028;32.372;2023-07-13T12:14:40;7.10;;;3.35;;
12896;SDS011;6516;35.028;32.372;2023-07-13T12:17:11;7.53;;;3.80;;
12896;SDS011;6516;35.028;32.372;2023-07-13T12:19:48;8.27;;;3.40;;
12896;SDS011;6516;35.028;32.372;2023-07-13T12:22:20;8.43;;;3.50;;
12896;SDS011;6516;35.028;32.372;2023-07-13T12:24:48;6.53;;;3.60;;
12896;SDS011;6516;35.028;32.372;2023-07-13T12:27:19;5.25;;;3.30;;
12896;SDS011;6516;35.028;32.372;2023-07-13T12:29:50;6.45;;;3.60;;
12896;SDS011;6516;35.028;32.372;2023-07-13T12:32:26;6.55;;;3.50;;
12896;SDS011;6516;35.028;32.372;2023-07-13T12:34:56;6.63;;;3.47;;
12896;SDS011;6516;35.028;32.372;2023-07-13T12:37:42;6.70;;;3.10;;
12896;SDS011;6516;35.028;32.372;2023-07-13T12:40:13;7.63;;;3.50;;
12896;SDS011;6516;35.028;32.372;2023-07-13T12:42:45;7.00;;;3.22;;
12896;SDS011;6516;35.028;32.372;2023-07-13T12:45:16;6.35;;;3.58;;
12896;SDS011;6516;35.028;32.372;2023-07-13T12:47:47;7.70;;;3.45;;
12896;SDS011;6516;35.028;32.372;2023-07-13T12:50:22;6.50;;;3.40;;
12896;SDS011;6516;35.028;32.372;2023-07-13T12:53:01;6.95;;;3.20;;
12896;SDS011;6516;35.028;32.372;2023-07-13T12:55:39;6.85;;;3.60;;
12896;SDS011;6516;35.028;32.372;2023-07-13T12:58:10;6.10;;;3.33;;
12896;SDS011;6516;35.028;32.372;2023-07-13T13:00:53;7.38;;;3.40;;
12896;SDS011;6516;35.028;32.372;2023-07-13T13:03:25;6.77;;;3.73;;
12896;SDS011;6516;35.028;32.372;2023-07-13T13:05:58;6.10;;;3.70;;
12896;SDS011;6516;35.028;32.372;2023-07-13T13:08:30;6.22;;;3.20;;
12896;SDS011;6516;35.028;32.372;2023-07-13T13:10:59;6.88;;;3.53;;
12896;SDS011;6516;35.028;32.372;2023-07-13T13:13:27;9.43;;;3.65;;
12896;SDS011;6516;35.028;32.372;2023-07-13T13:15:55;6.13;;;3.10;;
12896;SDS011;6516;35.028;32.372;2023-07-13T13:18:28;8.90;;;3.22;;
12896;SDS011;6516;35.028;32.372;2023-07-13T13:20:56;6.32;;;3.60;;
12896;SDS011;6516;35.028;32.372;2023-07-13T13:23:24;8.48;;;3.53;;
12896;SDS011;6516;35.028;32.372;2023-07-13T13:25:53;6.50;;;3.40;;
12896;SDS011;6516;35.028;32.372;2023-07-13T13:28:21;7.13;;;3.40;;
12896;SDS011;6516;35.028;32.372;2023-07-13T13:30:49;8.68;;;3.53;;
12896;SDS011;6516;35.028;32.372;2023-07-13T13:33:19;6.63;;;3.42;;
12896;SDS011;6516;35.028;32.372;2023-07-13T13:35:48;7.65;;;3.50;;
12896;SDS011;6516;35.028;32.372;2023-07-13T13:38:17;10.50;;;3.85;;
12896;SDS011;6516;35.028;32.372;2023-07-13T13:40:51;7.70;;;3.30;;
12896;SDS011;6516;35.028;32.372;2023-07-13T13:43:22;7.75;;;3.30;;
12896;SDS011;6516;35.028;32.372;2023-07-13T13:45:52;8.65;;;3.80;;
12896;SDS011;6516;35.028;32.372;2023-07-13T13:48:25;6.57;;;3.78;;
12896;SDS011;6516;35.028;32.372;2023-07-13T13:50:58;7.45;;;3.60;;
12896;SDS011;6516;35.028;32.372;2023-07-13T13:53:27;6.83;;;3.47;;
12896;SDS011;6516;35.028;32.372;2023-07-13T13:55:56;6.60;;;3.75;;
12896;SDS011;6516;35.028;32.372;2023-07-13T13:58:25;6.35;;;3.53;;
12896;SDS011;6516;35.028;32.372;2023-07-13T14:00:53;8.85;;;3.50;;
12896;SDS011;6516;35.028;32.372;2023-07-13T14:03:23;6.53;;;3.70;;
12896;SDS011;6516;35.028;32.372;2023-07-13T14:05:53;7.77;;;3.50;;
12896;SDS011;6516;35.028;32.372;2023-07-13T14:08:22;7.35;;;3.60;;
12896;SDS011;6516;35.028;32.372;2023-07-13T14:10:50;7.45;;;3.30;;
12896;SDS011;6516;35.028;32.372;2023-07-13T14:13:25;6.75;;;3.25;;
12896;SDS011;6516;35.028;32.372;2023-07-13T14:15:57;8.23;;;3.40;;
12896;SDS011;6516;35.028;32.372;2023-07-13T14:18:25;8.00;;;3.37;;
12896;SDS011;6516;35.028;32.372;2023-07-13T14:20:53;5.55;;;3.40;;
12896;SDS011;6516;35.028;32.372;2023-07-13T14:23:20;6.65;;;3.60;;
12896;SDS011;6516;35.028;32.372;2023-07-13T14:25:48;6.15;;;3.20;;
12896;SDS011;6516;35.028;32.372;2023-07-13T14:28:20;8.30;;;3.30;;
12896;SDS011;6516;35.028;32.372;2023-07-13T14:30:51;6.80;;;3.70;;
12896;SDS011;6516;35.028;32.372;2023-07-13T14:33:20;11.52;;;3.78;;
12896;SDS011;6516;35.028;32.372;2023-07-13T14:35:49;8.93;;;3.65;;
12896;SDS011;6516;35.028;32.372;2023-07-13T14:38:18;10.75;;;3.60;;
12896;SDS011;6516;35.028;32.372;2023-07-13T14:40:47;6.63;;;3.40;;
12896;SDS011;6516;35.028;32.372;2023-07-13T14:43:15;6.60;;;3.80;;
12896;SDS011;6516;35.028;32.372;2023-07-13T14:45:46;6.15;;;3.63;;
12896;SDS011;6516;35.028;32.372;2023-07-13T14:48:19;7.10;;;3.72;;
12896;SDS011;6516;35.028;32.372;2023-07-13T14:50:50;7.20;;;3.70;;
12896;SDS011;6516;35.028;32.372;2023-07-13T14:53:22;9.43;;;3.58;;
12896;SDS011;6516;35.028;32.372;2023-07-13T14:55:51;6.60;;;3.67;;
12896;SDS011;6516;35.028;32.372;2023-07-13T14:58:18;7.65;;;3.65;;
12896;SDS011;6516;35.028;32.372;2023-07-13T15:00:48;6.85;;;3.70;;
12896;SDS011;6516;35.028;32.372;2023-07-13T15:03:21;7.70;;;3.55;;
12896;SDS011;6516;35.028;32.372;2023-07-13T15:05:51;8.02;;;3.63;;
12896;SDS011;6516;35.028;32.372;2023-07-13T15:08:19;6.43;;;3.50;;